CheckWX is a tool to help pilots better visualize weather data.  It is not intended as a substitute for an official pre-flight weather briefing.

18:38:04 UTC

KIDP METAR
Independence Municipal Airport
Independence, Kansas, USA
Current

23 mins ago

KIDP 261815Z AUTO 00000KT 10SM CLR 16/05 A3038 RMK AO2 T01590050
Observed
Mar-26 @ 18:15 UTC
Visibility
10 SM
Flight Rules
VFR
Cloud Levels
  • Clear skies
Temperature
16°C / 61°F
Dewpoint
C / 41°F
Humidity
48%
Altimeter
30.38" Hg
Pressure
1028.81 hPa
Previous

43 mins ago

KIDP 261755Z AUTO 00000KT 10SM CLR 16/06 A3039 RMK AO2 T01580058 10163 20008
Observed
Mar-26 @ 17:55 UTC
Visibility
10 SM
Flight Rules
VFR
Cloud Levels
  • Clear skies
Temperature
16°C / 61°F
Dewpoint
C / 43°F
Humidity
52%
Altimeter
30.39" Hg
Pressure
1029.11 hPa
Previous

1 hour ago

KIDP 261735Z AUTO 00000KT 10SM CLR 15/06 A3040 RMK AO2 T01450058
Observed
Mar-26 @ 17:35 UTC
Visibility
10 SM
Flight Rules
VFR
Cloud Levels
  • Clear skies
Temperature
15°C / 59°F
Dewpoint
C / 43°F
Humidity
55%
Altimeter
30.4" Hg
Pressure
1029.41 hPa